sensor_id;sensor_type;location;lat;lon;timestamp;temperature;humidity
29345;DHT22;16339;48.748;2.222;2023-11-19T13:34:04;14.80;99.90
29345;DHT22;16339;48.748;2.222;2023-11-19T13:36:36;15.00;99.90
29345;DHT22;16339;48.748;2.222;2023-11-19T13:39:04;15.50;99.90
29345;DHT22;16339;48.748;2.222;2023-11-19T13:41:36;15.60;99.90
29345;DHT22;16339;48.748;2.222;2023-11-19T13:44:05;15.90;99.90
29345;DHT22;16339;48.748;2.222;2023-11-19T13:46:34;16.00;99.90
29345;DHT22;16339;48.748;2.222;2023-11-19T13:49:06;16.00;99.90
29345;DHT22;16339;48.748;2.222;2023-11-19T13:51:34;16.10;99.90
29345;DHT22;16339;48.748;2.222;2023-11-19T13:54:03;16.20;99.90
29345;DHT22;16339;48.748;2.222;2023-11-19T13:56:32;16.40;99.90
29345;DHT22;16339;48.748;2.222;2023-11-19T13:59:00;16.40;99.90
29345;DHT22;16339;48.748;2.222;2023-11-19T14:01:29;16.30;99.90
29345;DHT22;16339;48.748;2.222;2023-11-19T14:03:58;16.40;99.90
29345;DHT22;16339;48.748;2.222;2023-11-19T14:06:29;16.30;99.90
29345;DHT22;16339;48.748;2.222;2023-11-19T14:08:58;16.30;99.90
29345;DHT22;16339;48.748;2.222;2023-11-19T14:11:29;16.20;99.90
29345;DHT22;16339;48.748;2.222;2023-11-19T14:13:58;16.30;99.90
29345;DHT22;16339;48.748;2.222;2023-11-19T14:16:29;16.20;99.90
29345;DHT22;16339;48.748;2.222;2023-11-19T14:19:00;16.30;99.90
29345;DHT22;16339;48.748;2.222;2023-11-19T14:21:31;16.40;99.90
29345;DHT22;16339;48.748;2.222;2023-11-19T14:24:00;16.40;99.90
29345;DHT22;16339;48.748;2.222;2023-11-19T14:26:28;16.40;99.90
29345;DHT22;16339;48.748;2.222;2023-11-19T14:28:57;16.50;99.90
29345;DHT22;16339;48.748;2.222;2023-11-19T14:31:28;16.60;99.90
29345;DHT22;16339;48.748;2.222;2023-11-19T14:34:00;16.70;99.90
29345;DHT22;16339;48.748;2.222;2023-11-19T14:36:32;16.60;99.90
29345;DHT22;16339;48.748;2.222;2023-11-19T14:39:00;16.60;99.90
29345;DHT22;16339;48.748;2.222;2023-11-19T14:41:29;16.50;99.90
29345;DHT22;16339;48.748;2.222;2023-11-19T14:43:58;16.60;99.90
29345;DHT22;16339;48.748;2.222;2023-11-19T14:46:27;16.60;99.90
29345;DHT22;16339;48.748;2.222;2023-11-19T14:48:58;16.70;99.90
29345;DHT22;16339;48.748;2.222;2023-11-19T14:51:32;16.70;99.90
29345;DHT22;16339;48.748;2.222;2023-11-19T14:54:00;16.40;99.90
29345;DHT22;16339;48.748;2.222;2023-11-19T14:56:29;16.50;99.90
29345;DHT22;16339;48.748;2.222;2023-11-19T14:58:58;16.50;99.90
29345;DHT22;16339;48.748;2.222;2023-11-19T15:01:27;16.50;99.90
29345;DHT22;16339;48.748;2.222;2023-11-19T15:03:56;16.40;99.90
29345;DHT22;16339;48.748;2.222;2023-11-19T15:06:25;16.50;99.90
29345;DHT22;16339;48.748;2.222;2023-11-19T15:08:58;16.50;99.90
29345;DHT22;16339;48.748;2.222;2023-11-19T15:11:27;16.50;99.90
29345;DHT22;16339;48.748;2.222;2023-11-19T15:13:56;16.60;99.90
29345;DHT22;16339;48.748;2.222;2023-11-19T15:16:24;16.70;99.90
29345;DHT22;16339;48.748;2.222;2023-11-19T15:18:57;16.70;99.90
29345;DHT22;16339;48.748;2.222;2023-11-19T15:21:29;16.70;99.90
29345;DHT22;16339;48.748;2.222;2023-11-19T15:24:01;16.50;99.90
29345;DHT22;16339;48.748;2.222;2023-11-19T15:26:33;16.40;99.90
29345;DHT22;16339;48.748;2.222;2023-11-19T15:29:03;16.20;99.90
29345;DHT22;16339;48.748;2.222;2023-11-19T15:31:32;16.30;99.90
29345;DHT22;16339;48.748;2.222;2023-11-19T15:34:01;16.00;99.90
29345;DHT22;16339;48.748;2.222;2023-11-19T15:36:29;16.10;99.90
29345;DHT22;16339;48.748;2.222;2023-11-19T15:39:03;16.20;99.90
29345;DHT22;16339;48.748;2.222;2023-11-19T15:41:33;16.30;99.90
29345;DHT22;16339;48.748;2.222;2023-11-19T15:44:01;16.30;99.90
29345;DHT22;16339;48.748;2.222;2023-11-19T15:46:31;16.30;99.90
29345;DHT22;16339;48.748;2.222;2023-11-19T15:48:59;16.20;99.90
29345;DHT22;16339;48.748;2.222;2023-11-19T15:51:28;16.10;99.90
29345;DHT22;16339;48.748;2.222;2023-11-19T15:53:57;16.20;99.90
29345;DHT22;16339;48.748;2.222;2023-11-19T15:56:29;15.90;99.90
29345;DHT22;16339;48.748;2.222;2023-11-19T15:58:57;15.90;99.90
29345;DHT22;16339;48.748;2.222;2023-11-19T16:01:26;16.10;99.90
29345;DHT22;16339;48.748;2.222;2023-11-19T16:03:56;16.20;99.90
29345;DHT22;16339;48.748;2.222;2023-11-19T16:06:25;16.10;99.90
29345;DHT22;16339;48.748;2.222;2023-11-19T16:08:55;16.10;99.90
29345;DHT22;16339;48.748;2.222;2023-11-19T16:11:24;16.00;99.90
29345;DHT22;16339;48.748;2.222;2023-11-19T16:13:55;16.10;99.90
29345;DHT22;16339;48.748;2.222;2023-11-19T16:16:25;16.00;99.90
29345;DHT22;16339;48.748;2.222;2023-11-19T16:18:54;16.10;99.90
29345;DHT22;16339;48.748;2.222;2023-11-19T16:21:24;15.90;99.90
29345;DHT22;16339;48.748;2.222;2023-11-19T16:23:53;16.00;99.90
29345;DHT22;16339;48.748;2.222;2023-11-19T16:26:22;16.00;99.90
29345;DHT22;16339;48.748;2.222;2023-11-19T16:28:51;16.00;99.90
29345;DHT22;16339;48.748;2.222;2023-11-19T16:31:25;16.00;99.90
29345;DHT22;16339;48.748;2.222;2023-11-19T16:33:53;15.90;99.90
29345;DHT22;16339;48.748;2.222;2023-11-19T16:36:22;16.00;99.90
29345;DHT22;16339;48.748;2.222;2023-11-19T16:38:52;16.10;99.90
29345;DHT22;16339;48.748;2.222;2023-11-19T16:41:23;16.10;99.90
29345;DHT22;16339;48.748;2.222;2023-11-19T16:43:52;15.90;99.90
29345;DHT22;16339;48.748;2.222;2023-11-19T16:46:27;15.90;99.90
29345;DHT22;16339;48.748;2.222;2023-11-19T16:48:58;15.70;99.90
29345;DHT22;16339;48.748;2.222;2023-11-19T16:51:26;15.80;99.90
29345;DHT22;16339;48.748;2.222;2023-11-19T16:53:55;15.70;99.90
29345;DHT22;16339;48.748;2.222;2023-11-19T16:56:24;15.80;99.90
29345;DHT22;16339;48.748;2.222;2023-11-19T16:58:53;15.90;99.90
29345;DHT22;16339;48.748;2.222;2023-11-19T17:01:22;15.90;99.90
29345;DHT22;16339;48.748;2.222;2023-11-19T17:03:53;15.90;99.90
29345;DHT22;16339;48.748;2.222;2023-11-19T17:06:23;15.90;99.90
29345;DHT22;16339;48.748;2.222;2023-11-19T17:08:52;15.90;99.90
29345;DHT22;16339;48.748;2.222;2023-11-19T17:11:21;15.90;99.90
29345;DHT22;16339;48.748;2.222;2023-11-19T17:13:49;15.90;99.90
29345;DHT22;16339;48.748;2.222;2023-11-19T17:16:19;15.90;99.90
29345;DHT22;16339;48.748;2.222;2023-11-19T17:18:48;15.90;99.90
29345;DHT22;16339;48.748;2.222;2023-11-19T17:21:19;15.90;99.90
29345;DHT22;16339;48.748;2.222;2023-11-19T17:23:49;15.90;99.90
29345;DHT22;16339;48.748;2.222;2023-11-19T17:26:18;16.00;99.90
29345;DHT22;16339;48.748;2.222;2023-11-19T17:28:47;15.90;99.90
29345;DHT22;16339;48.748;2.222;2023-11-19T17:31:16;15.90;99.90
29345;DHT22;16339;48.748;2.222;2023-11-19T17:33:45;15.90;99.90
29345;DHT22;16339;48.748;2.222;2023-11-19T17:36:14;15.70;99.90
29345;DHT22;16339;48.748;2.222;2023-11-19T17:38:48;15.80;99.90
29345;DHT22;16339;48.748;2.222;2023-11-19T17:41:17;15.80;99.90
29345;DHT22;16339;48.748;2.222;2023-11-19T17:43:45;15.70;99.90
29345;DHT22;16339;48.748;2.222;2023-11-19T17:46:14;15.80;99.90
29345;DHT22;16339;48.748;2.222;2023-11-19T17:48:43;15.80;99.90
29345;DHT22;16339;48.748;2.222;2023-11-19T17:51:12;15.80;99.90
29345;DHT22;16339;48.748;2.222;2023-11-19T17:53:42;15.80;99.90
29345;DHT22;16339;48.748;2.222;2023-11-19T17:56:14;15.80;99.90
29345;DHT22;16339;48.748;2.222;2023-11-19T17:58:47;15.80;99.90
29345;DHT22;16339;48.748;2.222;2023-11-19T18:01:16;15.80;99.90
29345;DHT22;16339;48.748;2.222;2023-11-19T18:03:45;15.80;99.90
29345;DHT22;16339;48.748;2.222;2023-11-19T18:06:17;15.80;99.90
29345;DHT22;16339;48.748;2.222;2023-11-19T18:08:48;15.70;99.90
29345;DHT22;16339;48.748;2.222;2023-11-19T18:11:21;15.50;99.90
29345;DHT22;16339;48.748;2.222;2023-11-19T18:13:50;15.60;99.90
29345;DHT22;16339;48.748;2.222;2023-11-19T18:16:20;15.60;99.90
29345;DHT22;16339;48.748;2.222;2023-11-19T18:18:49;15.60;99.90
29345;DHT22;16339;48.748;2.222;2023-11-19T18:21:17;15.60;99.90
29345;DHT22;16339;48.748;2.222;2023-11-19T18:23:46;15.60;99.90
29345;DHT22;16339;48.748;2.222;2023-11-19T18:26:15;15.60;99.90
29345;DHT22;16339;48.748;2.222;2023-11-19T18:28:46;15.60;99.90
29345;DHT22;16339;48.748;2.222;2023-11-19T18:31:15;15.60;99.90
29345;DHT22;16339;48.748;2.222;2023-11-19T18:33:43;15.70;99.90
29345;DHT22;16339;48.748;2.222;2023-11-19T18:36:12;15.70;99.90
29345;DHT22;16339;48.748;2.222;2023-11-19T18:38:41;15.80;99.90
29345;DHT22;16339;48.748;2.222;2023-11-19T18:41:10;15.70;99.90
29345;DHT22;16339;48.748;2.222;2023-11-19T18:43:40;15.80;99.90
29345;DHT22;16339;48.748;2.222;2023-11-19T18:46:11;15.80;99.90
29345;DHT22;16339;48.748;2.222;2023-11-19T18:48:39;15.70;99.90
29345;DHT22;16339;48.748;2.222;2023-11-19T18:51:10;15.70;99.90
29345;DHT22;16339;48.748;2.222;2023-11-19T18:53:40;15.70;99.90
29345;DHT22;16339;48.748;2.222;2023-11-19T18:56:10;15.80;99.90
29345;DHT22;16339;48.748;2.222;2023-11-19T18:58:39;15.70;99.90
29345;DHT22;16339;48.748;2.222;2023-11-19T19:01:11;15.70;99.90
29345;DHT22;16339;48.748;2.222;2023-11-19T19:03:41;15.70;99.90
29345;DHT22;16339;48.748;2.222;2023-11-19T19:06:10;15.60;99.90
29345;DHT22;16339;48.748;2.222;2023-11-19T19:08:39;15.60;99.90
29345;DHT22;16339;48.748;2.222;2023-11-19T19:11:09;15.50;99.90
29345;DHT22;16339;48.748;2.222;2023-11-19T19:13:38;15.60;99.90
29345;DHT22;16339;48.748;2.222;2023-11-19T19:16:11;15.60;99.90
29345;DHT22;16339;48.748;2.222;2023-11-19T19:18:40;15.60;99.90
29345;DHT22;16339;48.748;2.222;2023-11-19T19:21:11;15.70;99.90
29345;DHT22;16339;48.748;2.222;2023-11-19T19:23:39;15.70;99.90
29345;DHT22;16339;48.748;2.222;2023-11-19T19:26:08;15.70;99.90
29345;DHT22;16339;48.748;2.222;2023-11-19T19:28:39;15.70;99.90
29345;DHT22;16339;48.748;2.222;2023-11-19T19:31:21;15.60;99.90
29345;DHT22;16339;48.748;2.222;2023-11-19T19:33:50;15.70;99.90
29345;DHT22;16339;48.748;2.222;2023-11-19T19:36:23;15.70;99.90
29345;DHT22;16339;48.748;2.222;2023-11-19T19:38:55;15.70;99.90
29345;DHT22;16339;48.748;2.222;2023-11-19T19:41:24;15.60;99.90
29345;DHT22;16339;48.748;2.222;2023-11-19T19:43:56;15.50;99.90
29345;DHT22;16339;48.748;2.222;2023-11-19T19:46:27;15.50;99.90
29345;DHT22;16339;48.748;2.222;2023-11-19T19:48:56;15.50;99.90
29345;DHT22;16339;48.748;2.222;2023-11-19T19:51:25;15.50;99.90
29345;DHT22;16339;48.748;2.222;2023-11-19T19:53:55;15.40;99.90
29345;DHT22;16339;48.748;2.222;2023-11-19T19:56:23;15.40;99.90
29345;DHT22;16339;48.748;2.222;2023-11-19T19:58:52;15.40;99.90
29345;DHT22;16339;48.748;2.222;2023-11-19T20:01:21;15.40;99.90
29345;DHT22;16339;48.748;2.222;2023-11-19T20:03:52;15.40;99.90
29345;DHT22;16339;48.748;2.222;2023-11-19T20:06:21;15.30;99.90
29345;DHT22;16339;48.748;2.222;2023-11-19T20:08:52;15.30;99.90
29345;DHT22;16339;48.748;2.222;2023-11-19T20:11:21;15.00;99.90
29345;DHT22;16339;48.748;2.222;2023-11-19T20:13:52;15.00;99.90
29345;DHT22;16339;48.748;2.222;2023-11-19T20:16:20;15.10;99.90
29345;DHT22;16339;48.748;2.222;2023-11-19T20:18:52;15.30;99.90
29345;DHT22;16339;48.748;2.222;2023-11-19T20:21:21;15.20;99.90
29345;DHT22;16339;48.748;2.222;2023-11-19T20:23:50;15.20;99.90
29345;DHT22;16339;48.748;2.222;2023-11-19T20:26:19;15.20;99.90
29345;DHT22;16339;48.748;2.222;2023-11-19T20:28:48;15.30;99.90
29345;DHT22;16339;48.748;2.222;2023-11-19T20:31:17;15.20;99.90
29345;DHT22;16339;48.748;2.222;2023-11-19T20:33:45;15.20;99.90
29345;DHT22;16339;48.748;2.222;2023-11-19T20:36:17;15.30;99.90
29345;DHT22;16339;48.748;2.222;2023-11-19T20:38:46;15.20;99.90
29345;DHT22;16339;48.748;2.222;2023-11-19T20:41:17;15.20;99.90
29345;DHT22;16339;48.748;2.222;2023-11-19T20:43:47;15.20;99.90
29345;DHT22;16339;48.748;2.222;2023-11-19T20:46:15;15.10;99.90
29345;DHT22;16339;48.748;2.222;2023-11-19T20:48:45;15.00;99.90
29345;DHT22;16339;48.748;2.222;2023-11-19T20:51:20;15.10;99.90
29345;DHT22;16339;48.748;2.222;2023-11-19T20:53:48;15.10;99.90
29345;DHT22;16339;48.748;2.222;2023-11-19T20:56:18;15.10;99.90
29345;DHT22;16339;48.748;2.222;2023-11-19T20:58:49;15.00;99.90
29345;DHT22;16339;48.748;2.222;2023-11-19T21:01:19;15.10;99.90
29345;DHT22;16339;48.748;2.222;2023-11-19T21:03:48;15.10;99.90
29345;DHT22;16339;48.748;2.222;2023-11-19T21:06:19;15.10;99.90
29345;DHT22;16339;48.748;2.222;2023-11-19T21:08:49;15.10;99.90
29345;DHT22;16339;48.748;2.222;2023-11-19T21:11:17;15.10;99.90
29345;DHT22;16339;48.748;2.222;2023-11-19T21:13:46;15.10;99.90
29345;DHT22;16339;48.748;2.222;2023-11-19T21:16:15;14.90;99.90
29345;DHT22;16339;48.748;2.222;2023-11-19T21:18:47;14.90;99.90
29345;DHT22;16339;48.748;2.222;2023-11-19T21:21:19;14.90;99.90
29345;DHT22;16339;48.748;2.222;2023-11-19T21:23:48;15.00;99.90
29345;DHT22;16339;48.748;2.222;2023-11-19T21:26:16;14.90;99.90
29345;DHT22;16339;48.748;2.222;2023-11-19T21:28:45;15.00;99.90
29345;DHT22;16339;48.748;2.222;2023-11-19T21:31:14;14.90;99.90
29345;DHT22;16339;48.748;2.222;2023-11-19T21:33:43;14.90;99.90
29345;DHT22;16339;48.748;2.222;2023-11-19T21:36:12;14.90;99.90
29345;DHT22;16339;48.748;2.222;2023-11-19T21:38:43;14.90;99.90
29345;DHT22;16339;48.748;2.222;2023-11-19T21:41:13;14.90;99.90
29345;DHT22;16339;48.748;2.222;2023-11-19T21:43:42;14.90;99.90
29345;DHT22;16339;48.748;2.222;2023-11-19T21:46:11;14.90;99.90
29345;DHT22;16339;48.748;2.222;2023-11-19T21:48:42;14.90;99.90
29345;DHT22;16339;48.748;2.222;2023-11-19T21:51:16;14.90;99.90
29345;DHT22;16339;48.748;2.222;2023-11-19T21:53:47;14.80;99.90
29345;DHT22;16339;48.748;2.222;2023-11-19T21:56:18;14.90;99.90
29345;DHT22;16339;48.748;2.222;2023-11-19T21:58:46;14.80;99.90
29345;DHT22;16339;48.748;2.222;2023-11-19T22:01:15;14.80;99.90
29345;DHT22;16339;48.748;2.222;2023-11-19T22:03:44;14.80;99.90
29345;DHT22;16339;48.748;2.222;2023-11-19T22:06:16;14.70;99.90
29345;DHT22;16339;48.748;2.222;2023-11-19T22:08:47;14.70;99.90
29345;DHT22;16339;48.748;2.222;2023-11-19T22:11:16;14.70;99.90
29345;DHT22;16339;48.748;2.222;2023-11-19T22:13:45;14.70;99.90
29345;DHT22;16339;48.748;2.222;2023-11-19T22:16:13;14.60;99.90
29345;DHT22;16339;48.748;2.222;2023-11-19T22:18:42;14.70;99.90
29345;DHT22;16339;48.748;2.222;2023-11-19T22:21:11;14.70;99.90
29345;DHT22;16339;48.748;2.222;2023-11-19T22:23:39;14.60;99.90
29345;DHT22;16339;48.748;2.222;2023-11-19T22:26:11;14.50;99.90
29345;DHT22;16339;48.748;2.222;2023-11-19T22:28:39;14.60;99.90
29345;DHT22;16339;48.748;2.222;2023-11-19T22:31:08;14.60;99.90
29345;DHT22;16339;48.748;2.222;2023-11-19T22:33:37;14.60;99.90
29345;DHT22;16339;48.748;2.222;2023-11-19T22:36:07;14.60;99.90
29345;DHT22;16339;48.748;2.222;2023-11-19T22:38:36;14.60;99.90
29345;DHT22;16339;48.748;2.222;2023-11-19T22:41:04;14.60;99.90
29345;DHT22;16339;48.748;2.222;2023-11-19T22:43:36;14.50;99.90
29345;DHT22;16339;48.748;2.222;2023-11-19T22:46:06;14.50;99.90
29345;DHT22;16339;48.748;2.222;2023-11-19T22:48:38;14.40;99.90
29345;DHT22;16339;48.748;2.222;2023-11-19T22:51:08;14.50;99.90
29345;DHT22;16339;48.748;2.222;2023-11-19T22:53:36;14.50;99.90
29345;DHT22;16339;48.748;2.222;2023-11-19T22:56:07;14.50;99.90
29345;DHT22;16339;48.748;2.222;2023-11-19T22:58:39;14.40;99.90
29345;DHT22;16339;48.748;2.222;2023-11-19T23:01:08;14.50;99.90
29345;DHT22;16339;48.748;2.222;2023-11-19T23:03:37;14.50;99.90
29345;DHT22;16339;48.748;2.222;2023-11-19T23:06:06;14.50;99.90
29345;DHT22;16339;48.748;2.222;2023-11-19T23:08:35;14.50;99.90
29345;DHT22;16339;48.748;2.222;2023-11-19T23:11:05;14.40;99.90
29345;DHT22;16339;48.748;2.222;2023-11-19T23:13:34;14.40;99.90
29345;DHT22;16339;48.748;2.222;2023-11-19T23:16:06;14.50;99.90
29345;DHT22;16339;48.748;2.222;2023-11-19T23:18:36;14.40;99.90
29345;DHT22;16339;48.748;2.222;2023-11-19T23:21:05;14.40;99.90
29345;DHT22;16339;48.748;2.222;2023-11-19T23:23:33;14.40;99.90
29345;DHT22;16339;48.748;2.222;2023-11-19T23:26:02;14.30;99.90
29345;DHT22;16339;48.748;2.222;2023-11-19T23:28:31;14.30;99.90
29345;DHT22;16339;48.748;2.222;2023-11-19T23:30:59;14.30;99.90
29345;DHT22;16339;48.748;2.222;2023-11-19T23:33:31;14.20;99.90
29345;DHT22;16339;48.748;2.222;2023-11-19T23:35:59;14.20;99.90
29345;DHT22;16339;48.748;2.222;2023-11-19T23:38:28;14.20;99.90
29345;DHT22;16339;48.748;2.222;2023-11-19T23:40:57;14.30;99.90
29345;DHT22;16339;48.748;2.222;2023-11-19T23:43:26;14.30;99.90
29345;DHT22;16339;48.748;2.222;2023-11-19T23:45:55;14.40;99.90
29345;DHT22;16339;48.748;2.222;2023-11-19T23:48:24;14.30;99.90
29345;DHT22;16339;48.748;2.222;2023-11-19T23:50:58;14.20;99.90
29345;DHT22;16339;48.748;2.222;2023-11-19T23:53:26;14.20;99.90
29345;DHT22;16339;48.748;2.222;2023-11-19T23:55:55;14.30;99.90
29345;DHT22;16339;48.748;2.222;2023-11-19T23:58:24;14.30;99.90
